LETO/TOJ METAR and TAF weather

Enter ICAO airport designator
Station Type Date Time Source
LETO METAR 2022/08/12 15:30 UTC NOAA

LETO 121530Z 25009KT 200V290 CAVOK 36/10 Q1015 NOSIG


Station Type Date Time Source
LETO Decoded METAR 2022/08/12 15:30 UTC NOAA

Madrid / Torrejon, Spain (LETO) 40-29N 003-27W 611M
Aug 12, 2022 - 11:30 AM EDT / 2022.08.12 1530 UTC
Wind: from the WSW (250 degrees) at 10 MPH (9 KT) (direction variable):0
Visibility: greater than 7 mile(s):0
Temperature: 96 F (36 C)
Dew Point: 50 F (10 C)
Relative Humidity: 20%
Pressure (altimeter): 29.97 in. Hg (1015 hPa)
ob: LETO 121530Z 25009KT 200V290 CAVOK 36/10 Q1015 NOSIG
cycle: 15

Station Type Date Time Source
LETO TAF 2022/08/12 12:27 UTC NOAA

TAF TAF LETO 121100Z 1212/1312 VRB05KT CAVOK TX39/1216Z TN17/1305Z
TEMPO 1212/1218 23010KT PROB30
TEMPO 1214/1217 25012G25KT
TEMPO 1217/1222 28010KT PROB40
TEMPO 1222/1305 VRB05KT PROB30
TEMPO 1309/1312 VRB20G40KT 4000 TSRA SHRA SCT045CB

Example: see airport list